sensor_id;sensor_type;location;lat;lon;timestamp;temperature;humidity
17252;DHT22;8742;51.716;8.790;2023-05-10T00:00:10;15.70;99.90
17252;DHT22;8742;51.716;8.790;2023-05-10T00:02:39;15.60;99.90
17252;DHT22;8742;51.716;8.790;2023-05-10T00:05:06;15.70;99.90
17252;DHT22;8742;51.716;8.790;2023-05-10T00:07:33;15.60;99.90
17252;DHT22;8742;51.716;8.790;2023-05-10T00:10:00;15.70;99.90
17252;DHT22;8742;51.716;8.790;2023-05-10T00:12:27;15.70;99.90
17252;DHT22;8742;51.716;8.790;2023-05-10T00:14:54;15.60;99.90
17252;DHT22;8742;51.716;8.790;2023-05-10T00:17:21;15.60;99.90
17252;DHT22;8742;51.716;8.790;2023-05-10T00:19:49;15.60;99.90
17252;DHT22;8742;51.716;8.790;2023-05-10T00:22:16;15.60;99.90
17252;DHT22;8742;51.716;8.790;2023-05-10T00:24:42;15.50;99.90
17252;DHT22;8742;51.716;8.790;2023-05-10T00:27:09;15.60;99.90
17252;DHT22;8742;51.716;8.790;2023-05-10T00:29:36;15.50;99.90
17252;DHT22;8742;51.716;8.790;2023-05-10T00:32:03;15.50;99.90
17252;DHT22;8742;51.716;8.790;2023-05-10T00:34:30;15.40;99.90
17252;DHT22;8742;51.716;8.790;2023-05-10T00:36:58;15.50;99.90
17252;DHT22;8742;51.716;8.790;2023-05-10T00:39:25;15.40;99.90
17252;DHT22;8742;51.716;8.790;2023-05-10T00:41:54;15.40;99.90
17252;DHT22;8742;51.716;8.790;2023-05-10T00:44:20;15.30;99.90
17252;DHT22;8742;51.716;8.790;2023-05-10T00:46:48;15.30;99.90
17252;DHT22;8742;51.716;8.790;2023-05-10T00:49:15;15.30;99.90
17252;DHT22;8742;51.716;8.790;2023-05-10T00:51:42;15.30;99.90
17252;DHT22;8742;51.716;8.790;2023-05-10T00:54:12;15.30;99.90
17252;DHT22;8742;51.716;8.790;2023-05-10T00:56:40;15.20;99.90
17252;DHT22;8742;51.716;8.790;2023-05-10T00:59:09;15.20;99.90
17252;DHT22;8742;51.716;8.790;2023-05-10T01:01:36;15.10;99.90
17252;DHT22;8742;51.716;8.790;2023-05-10T01:04:04;15.10;99.90
17252;DHT22;8742;51.716;8.790;2023-05-10T01:06:31;15.10;99.90
17252;DHT22;8742;51.716;8.790;2023-05-10T01:08:58;15.00;99.90
17252;DHT22;8742;51.716;8.790;2023-05-10T01:11:26;15.00;99.90
17252;DHT22;8742;51.716;8.790;2023-05-10T01:13:55;15.00;99.90
17252;DHT22;8742;51.716;8.790;2023-05-10T01:16:23;15.00;99.90
17252;DHT22;8742;51.716;8.790;2023-05-10T01:18:51;15.00;99.90
17252;DHT22;8742;51.716;8.790;2023-05-10T01:21:23;15.00;99.90
17252;DHT22;8742;51.716;8.790;2023-05-10T01:24:22;14.90;99.90
17252;DHT22;8742;51.716;8.790;2023-05-10T01:27:16;14.90;99.90
17252;DHT22;8742;51.716;8.790;2023-05-10T01:33:00;14.90;99.90
17252;DHT22;8742;51.716;8.790;2023-05-10T01:35:33;14.90;99.90
17252;DHT22;8742;51.716;8.790;2023-05-10T01:38:09;14.80;99.90
17252;DHT22;8742;51.716;8.790;2023-05-10T01:40:42;14.80;99.90
17252;DHT22;8742;51.716;8.790;2023-05-10T01:43:19;14.70;99.90
17252;DHT22;8742;51.716;8.790;2023-05-10T01:46:02;14.70;99.90
17252;DHT22;8742;51.716;8.790;2023-05-10T01:48:38;14.60;99.90
17252;DHT22;8742;51.716;8.790;2023-05-10T01:51:07;14.60;99.90
17252;DHT22;8742;51.716;8.790;2023-05-10T01:53:37;14.50;99.90
17252;DHT22;8742;51.716;8.790;2023-05-10T01:56:06;14.60;99.90
17252;DHT22;8742;51.716;8.790;2023-05-10T01:58:34;14.50;99.90
17252;DHT22;8742;51.716;8.790;2023-05-10T02:01:03;14.60;99.90
17252;DHT22;8742;51.716;8.790;2023-05-10T02:03:32;14.50;99.90
17252;DHT22;8742;51.716;8.790;2023-05-10T02:06:02;14.50;99.90
17252;DHT22;8742;51.716;8.790;2023-05-10T02:08:30;14.40;99.90
17252;DHT22;8742;51.716;8.790;2023-05-10T02:10:58;14.30;99.90
17252;DHT22;8742;51.716;8.790;2023-05-10T02:13:26;14.20;99.90
17252;DHT22;8742;51.716;8.790;2023-05-10T02:15:54;14.10;99.90
17252;DHT22;8742;51.716;8.790;2023-05-10T02:18:23;14.10;99.90
17252;DHT22;8742;51.716;8.790;2023-05-10T02:20:52;14.00;99.90
17252;DHT22;8742;51.716;8.790;2023-05-10T02:23:21;14.00;99.90
17252;DHT22;8742;51.716;8.790;2023-05-10T02:25:50;13.90;99.90
17252;DHT22;8742;51.716;8.790;2023-05-10T02:28:18;13.90;99.90
17252;DHT22;8742;51.716;8.790;2023-05-10T02:30:47;13.80;99.90
17252;DHT22;8742;51.716;8.790;2023-05-10T02:33:14;13.80;99.90
17252;DHT22;8742;51.716;8.790;2023-05-10T02:35:41;13.70;99.90
17252;DHT22;8742;51.716;8.790;2023-05-10T02:38:09;13.70;99.90
17252;DHT22;8742;51.716;8.790;2023-05-10T02:40:41;13.70;99.90
17252;DHT22;8742;51.716;8.790;2023-05-10T02:43:12;13.60;99.90
17252;DHT22;8742;51.716;8.790;2023-05-10T02:45:42;13.60;99.90
17252;DHT22;8742;51.716;8.790;2023-05-10T02:48:09;13.60;99.90
17252;DHT22;8742;51.716;8.790;2023-05-10T02:50:37;13.60;99.90
17252;DHT22;8742;51.716;8.790;2023-05-10T02:53:11;13.60;99.90
17252;DHT22;8742;51.716;8.790;2023-05-10T02:55:45;13.60;99.90
17252;DHT22;8742;51.716;8.790;2023-05-10T02:58:15;13.60;99.90
17252;DHT22;8742;51.716;8.790;2023-05-10T03:00:44;13.60;99.90
17252;DHT22;8742;51.716;8.790;2023-05-10T03:03:11;13.60;99.90
17252;DHT22;8742;51.716;8.790;2023-05-10T03:05:38;13.60;99.90
17252;DHT22;8742;51.716;8.790;2023-05-10T03:08:05;13.50;99.90
17252;DHT22;8742;51.716;8.790;2023-05-10T03:10:35;13.50;99.90
17252;DHT22;8742;51.716;8.790;2023-05-10T03:13:12;13.50;99.90
17252;DHT22;8742;51.716;8.790;2023-05-10T03:15:47;13.50;99.90
17252;DHT22;8742;51.716;8.790;2023-05-10T03:18:18;13.50;99.90
17252;DHT22;8742;51.716;8.790;2023-05-10T03:20:50;13.50;99.90
17252;DHT22;8742;51.716;8.790;2023-05-10T03:23:22;13.50;99.90
17252;DHT22;8742;51.716;8.790;2023-05-10T03:25:50;13.50;99.90
17252;DHT22;8742;51.716;8.790;2023-05-10T03:28:18;13.50;99.90
17252;DHT22;8742;51.716;8.790;2023-05-10T03:30:47;13.50;99.90
17252;DHT22;8742;51.716;8.790;2023-05-10T03:33:14;13.50;99.90
17252;DHT22;8742;51.716;8.790;2023-05-10T03:35:41;13.50;99.90
17252;DHT22;8742;51.716;8.790;2023-05-10T03:38:09;13.50;99.90
17252;DHT22;8742;51.716;8.790;2023-05-10T03:40:36;13.50;99.90
17252;DHT22;8742;51.716;8.790;2023-05-10T03:43:03;13.50;99.90
17252;DHT22;8742;51.716;8.790;2023-05-10T03:45:31;13.60;99.90
17252;DHT22;8742;51.716;8.790;2023-05-10T03:47:58;13.50;99.90
17252;DHT22;8742;51.716;8.790;2023-05-10T03:50:25;13.50;99.90
17252;DHT22;8742;51.716;8.790;2023-05-10T03:52:52;13.50;99.90
17252;DHT22;8742;51.716;8.790;2023-05-10T03:55:19;13.50;99.90
17252;DHT22;8742;51.716;8.790;2023-05-10T03:57:46;13.50;99.90
17252;DHT22;8742;51.716;8.790;2023-05-10T04:00:15;13.50;99.90
17252;DHT22;8742;51.716;8.790;2023-05-10T04:02:43;13.50;99.90
17252;DHT22;8742;51.716;8.790;2023-05-10T04:05:10;13.40;99.90
17252;DHT22;8742;51.716;8.790;2023-05-10T04:07:38;13.40;99.90
17252;DHT22;8742;51.716;8.790;2023-05-10T04:10:05;13.40;99.90
17252;DHT22;8742;51.716;8.790;2023-05-10T04:12:32;13.40;99.90
17252;DHT22;8742;51.716;8.790;2023-05-10T04:14:59;13.40;99.90
17252;DHT22;8742;51.716;8.790;2023-05-10T04:17:26;13.30;99.90
17252;DHT22;8742;51.716;8.790;2023-05-10T04:19:55;13.30;99.90
17252;DHT22;8742;51.716;8.790;2023-05-10T04:22:22;13.30;99.90
17252;DHT22;8742;51.716;8.790;2023-05-10T04:24:49;13.30;99.90
17252;DHT22;8742;51.716;8.790;2023-05-10T04:27:16;13.30;99.90
17252;DHT22;8742;51.716;8.790;2023-05-10T04:29:43;13.30;99.90
17252;DHT22;8742;51.716;8.790;2023-05-10T04:32:10;13.30;99.90
17252;DHT22;8742;51.716;8.790;2023-05-10T04:34:36;13.30;99.90
17252;DHT22;8742;51.716;8.790;2023-05-10T04:37:05;13.30;99.90
17252;DHT22;8742;51.716;8.790;2023-05-10T04:39:32;13.30;99.90
17252;DHT22;8742;51.716;8.790;2023-05-10T04:42:00;13.20;99.90
17252;DHT22;8742;51.716;8.790;2023-05-10T04:44:28;13.20;99.90
17252;DHT22;8742;51.716;8.790;2023-05-10T04:46:55;13.30;99.90
17252;DHT22;8742;51.716;8.790;2023-05-10T04:49:22;13.30;99.90
17252;DHT22;8742;51.716;8.790;2023-05-10T04:51:49;13.20;99.90
17252;DHT22;8742;51.716;8.790;2023-05-10T04:54:17;13.30;99.90
17252;DHT22;8742;51.716;8.790;2023-05-10T04:56:44;13.30;99.90
17252;DHT22;8742;51.716;8.790;2023-05-10T04:59:10;13.30;99.90
17252;DHT22;8742;51.716;8.790;2023-05-10T05:01:37;13.30;99.90
17252;DHT22;8742;51.716;8.790;2023-05-10T05:04:04;13.30;99.90
17252;DHT22;8742;51.716;8.790;2023-05-10T05:06:32;13.20;99.90
17252;DHT22;8742;51.716;8.790;2023-05-10T05:08:59;13.20;99.90
17252;DHT22;8742;51.716;8.790;2023-05-10T05:11:27;13.20;99.90
17252;DHT22;8742;51.716;8.790;2023-05-10T05:13:54;13.20;99.90
17252;DHT22;8742;51.716;8.790;2023-05-10T05:16:20;13.20;99.90
17252;DHT22;8742;51.716;8.790;2023-05-10T05:18:47;13.10;99.90
17252;DHT22;8742;51.716;8.790;2023-05-10T05:21:14;13.20;99.90
17252;DHT22;8742;51.716;8.790;2023-05-10T05:23:42;13.20;99.90
17252;DHT22;8742;51.716;8.790;2023-05-10T05:26:09;13.20;99.90
17252;DHT22;8742;51.716;8.790;2023-05-10T05:28:38;13.20;99.90
17252;DHT22;8742;51.716;8.790;2023-05-10T05:31:05;13.20;99.90
17252;DHT22;8742;51.716;8.790;2023-05-10T05:33:32;13.20;99.90
17252;DHT22;8742;51.716;8.790;2023-05-10T05:36:00;13.10;99.90
17252;DHT22;8742;51.716;8.790;2023-05-10T05:38:27;13.20;99.90
17252;DHT22;8742;51.716;8.790;2023-05-10T05:40:54;13.20;99.90
17252;DHT22;8742;51.716;8.790;2023-05-10T05:43:21;13.20;99.90
17252;DHT22;8742;51.716;8.790;2023-05-10T05:45:49;13.20;99.90
17252;DHT22;8742;51.716;8.790;2023-05-10T05:48:16;13.20;99.90
17252;DHT22;8742;51.716;8.790;2023-05-10T05:50:42;13.20;99.90
17252;DHT22;8742;51.716;8.790;2023-05-10T05:53:09;13.20;99.90
17252;DHT22;8742;51.716;8.790;2023-05-10T05:55:36;13.30;99.90
17252;DHT22;8742;51.716;8.790;2023-05-10T05:58:03;13.30;99.90
17252;DHT22;8742;51.716;8.790;2023-05-10T06:00:30;13.30;99.90
17252;DHT22;8742;51.716;8.790;2023-05-10T06:02:58;13.30;99.90
17252;DHT22;8742;51.716;8.790;2023-05-10T06:05:25;13.30;99.90
17252;DHT22;8742;51.716;8.790;2023-05-10T06:07:52;13.20;99.90
17252;DHT22;8742;51.716;8.790;2023-05-10T06:10:18;13.20;99.90
17252;DHT22;8742;51.716;8.790;2023-05-10T06:12:45;13.20;99.90
17252;DHT22;8742;51.716;8.790;2023-05-10T06:15:12;13.10;99.90
17252;DHT22;8742;51.716;8.790;2023-05-10T06:17:39;13.10;99.90
17252;DHT22;8742;51.716;8.790;2023-05-10T06:20:08;13.10;99.90
17252;DHT22;8742;51.716;8.790;2023-05-10T06:22:35;13.10;99.90
17252;DHT22;8742;51.716;8.790;2023-05-10T06:25:02;13.10;99.90
17252;DHT22;8742;51.716;8.790;2023-05-10T06:27:29;13.10;99.90
17252;DHT22;8742;51.716;8.790;2023-05-10T06:29:56;13.10;99.90
17252;DHT22;8742;51.716;8.790;2023-05-10T06:32:23;13.20;99.90
17252;DHT22;8742;51.716;8.790;2023-05-10T06:34:50;13.10;99.90
17252;DHT22;8742;51.716;8.790;2023-05-10T06:37:19;13.10;99.90
17252;DHT22;8742;51.716;8.790;2023-05-10T06:39:45;13.20;99.90
17252;DHT22;8742;51.716;8.790;2023-05-10T06:42:12;13.20;99.90
17252;DHT22;8742;51.716;8.790;2023-05-10T06:44:39;13.30;99.90
17252;DHT22;8742;51.716;8.790;2023-05-10T06:47:06;13.40;99.90
17252;DHT22;8742;51.716;8.790;2023-05-10T06:49:33;13.50;99.90
17252;DHT22;8742;51.716;8.790;2023-05-10T06:52:00;13.60;99.90
17252;DHT22;8742;51.716;8.790;2023-05-10T06:54:28;13.70;99.90
17252;DHT22;8742;51.716;8.790;2023-05-10T06:56:55;13.70;99.90
17252;DHT22;8742;51.716;8.790;2023-05-10T06:59:21;13.80;99.90
17252;DHT22;8742;51.716;8.790;2023-05-10T07:01:48;13.80;99.90
17252;DHT22;8742;51.716;8.790;2023-05-10T07:04:15;13.80;99.90
17252;DHT22;8742;51.716;8.790;2023-05-10T07:06:43;13.90;99.90
17252;DHT22;8742;51.716;8.790;2023-05-10T07:09:11;13.90;99.90
17252;DHT22;8742;51.716;8.790;2023-05-10T07:11:40;14.00;99.90
17252;DHT22;8742;51.716;8.790;2023-05-10T07:14:07;13.90;99.90
17252;DHT22;8742;51.716;8.790;2023-05-10T07:16:33;14.00;99.90
17252;DHT22;8742;51.716;8.790;2023-05-10T07:19:00;14.00;99.90
17252;DHT22;8742;51.716;8.790;2023-05-10T07:21:27;14.00;99.90
17252;DHT22;8742;51.716;8.790;2023-05-10T07:23:54;14.00;99.90
17252;DHT22;8742;51.716;8.790;2023-05-10T07:26:21;14.00;99.90
17252;DHT22;8742;51.716;8.790;2023-05-10T07:28:49;14.10;99.90
17252;DHT22;8742;51.716;8.790;2023-05-10T07:31:16;14.20;99.90
17252;DHT22;8742;51.716;8.790;2023-05-10T07:33:43;14.30;99.90
17252;DHT22;8742;51.716;8.790;2023-05-10T07:36:10;14.40;99.90
17252;DHT22;8742;51.716;8.790;2023-05-10T07:38:37;14.50;99.90
17252;DHT22;8742;51.716;8.790;2023-05-10T07:41:03;14.60;99.90
17252;DHT22;8742;51.716;8.790;2023-05-10T07:43:30;14.70;99.90
17252;DHT22;8742;51.716;8.790;2023-05-10T07:45:58;14.80;99.90
17252;DHT22;8742;51.716;8.790;2023-05-10T07:48:26;14.90;99.90
17252;DHT22;8742;51.716;8.790;2023-05-10T07:50:52;15.00;99.90
17252;DHT22;8742;51.716;8.790;2023-05-10T07:53:19;15.20;99.90
17252;DHT22;8742;51.716;8.790;2023-05-10T07:55:50;15.30;99.90
17252;DHT22;8742;51.716;8.790;2023-05-10T07:58:17;15.50;99.90
17252;DHT22;8742;51.716;8.790;2023-05-10T08:00:44;15.60;99.90
17252;DHT22;8742;51.716;8.790;2023-05-10T08:03:12;15.80;99.90
17252;DHT22;8742;51.716;8.790;2023-05-10T08:05:39;16.10;99.90
17252;DHT22;8742;51.716;8.790;2023-05-10T08:08:06;16.30;99.90
17252;DHT22;8742;51.716;8.790;2023-05-10T08:10:32;16.50;99.90
17252;DHT22;8742;51.716;8.790;2023-05-10T08:12:59;16.60;99.90
17252;DHT22;8742;51.716;8.790;2023-05-10T08:15:26;16.60;99.90
17252;DHT22;8742;51.716;8.790;2023-05-10T08:17:53;16.50;99.90
17252;DHT22;8742;51.716;8.790;2023-05-10T08:20:21;16.20;99.90
17252;DHT22;8742;51.716;8.790;2023-05-10T08:22:48;16.00;99.90
17252;DHT22;8742;51.716;8.790;2023-05-10T08:25:15;15.70;99.90
17252;DHT22;8742;51.716;8.790;2023-05-10T08:27:42;15.50;99.90
17252;DHT22;8742;51.716;8.790;2023-05-10T08:30:10;15.20;99.90
17252;DHT22;8742;51.716;8.790;2023-05-10T08:32:37;15.00;99.90
17252;DHT22;8742;51.716;8.790;2023-05-10T08:35:05;14.80;99.90
17252;DHT22;8742;51.716;8.790;2023-05-10T08:37:33;14.60;99.90
17252;DHT22;8742;51.716;8.790;2023-05-10T08:40:00;14.50;99.90
17252;DHT22;8742;51.716;8.790;2023-05-10T08:42:30;14.40;99.90
17252;DHT22;8742;51.716;8.790;2023-05-10T08:44:57;14.40;99.90
17252;DHT22;8742;51.716;8.790;2023-05-10T08:47:26;14.50;99.90
17252;DHT22;8742;51.716;8.790;2023-05-10T08:49:54;14.60;99.90
17252;DHT22;8742;51.716;8.790;2023-05-10T08:52:21;14.80;99.90
17252;DHT22;8742;51.716;8.790;2023-05-10T08:54:52;15.00;99.90
17252;DHT22;8742;51.716;8.790;2023-05-10T08:57:19;15.10;99.90
17252;DHT22;8742;51.716;8.790;2023-05-10T08:59:46;15.10;99.90
17252;DHT22;8742;51.716;8.790;2023-05-10T09:02:14;15.10;99.90
17252;DHT22;8742;51.716;8.790;2023-05-10T09:04:40;15.00;99.90
17252;DHT22;8742;51.716;8.790;2023-05-10T09:07:07;15.00;99.90
17252;DHT22;8742;51.716;8.790;2023-05-10T09:09:35;15.00;99.90
17252;DHT22;8742;51.716;8.790;2023-05-10T09:12:04;15.10;99.90
17252;DHT22;8742;51.716;8.790;2023-05-10T09:14:34;15.20;99.90
17252;DHT22;8742;51.716;8.790;2023-05-10T09:17:02;15.50;99.90
17252;DHT22;8742;51.716;8.790;2023-05-10T09:19:29;15.90;99.90
17252;DHT22;8742;51.716;8.790;2023-05-10T09:21:55;16.20;99.90
17252;DHT22;8742;51.716;8.790;2023-05-10T09:24:25;16.50;99.90
17252;DHT22;8742;51.716;8.790;2023-05-10T09:26:52;16.70;99.90
17252;DHT22;8742;51.716;8.790;2023-05-10T09:29:21;16.90;99.90
17252;DHT22;8742;51.716;8.790;2023-05-10T09:31:49;17.00;99.90
17252;DHT22;8742;51.716;8.790;2023-05-10T09:34:21;17.20;99.90
17252;DHT22;8742;51.716;8.790;2023-05-10T09:36:53;17.30;99.90
17252;DHT22;8742;51.716;8.790;2023-05-10T09:39:20;17.40;99.90
17252;DHT22;8742;51.716;8.790;2023-05-10T09:41:47;17.60;99.90
17252;DHT22;8742;51.716;8.790;2023-05-10T09:44:17;18.20;99.90
17252;DHT22;8742;51.716;8.790;2023-05-10T09:46:50;18.90;99.90
17252;DHT22;8742;51.716;8.790;2023-05-10T09:49:18;19.10;99.90
17252;DHT22;8742;51.716;8.790;2023-05-10T09:51:45;19.10;99.90
17252;DHT22;8742;51.716;8.790;2023-05-10T09:54:13;19.20;99.90
17252;DHT22;8742;51.716;8.790;2023-05-10T09:56:40;19.50;99.90
17252;DHT22;8742;51.716;8.790;2023-05-10T09:59:12;19.60;99.90
17252;DHT22;8742;51.716;8.790;2023-05-10T10:01:39;19.70;99.90
17252;DHT22;8742;51.716;8.790;2023-05-10T10:04:09;20.10;99.90
17252;DHT22;8742;51.716;8.790;2023-05-10T10:06:37;20.40;99.90
17252;DHT22;8742;51.716;8.790;2023-05-10T10:09:04;20.80;99.90
17252;DHT22;8742;51.716;8.790;2023-05-10T10:11:31;20.80;99.90
17252;DHT22;8742;51.716;8.790;2023-05-10T10:13:58;20.90;99.90
17252;DHT22;8742;51.716;8.790;2023-05-10T10:16:27;21.20;99.90
17252;DHT22;8742;51.716;8.790;2023-05-10T10:18:54;21.70;99.90
17252;DHT22;8742;51.716;8.790;2023-05-10T10:21:22;21.80;99.90
17252;DHT22;8742;51.716;8.790;2023-05-10T10:23:50;21.60;99.90
17252;DHT22;8742;51.716;8.790;2023-05-10T10:26:18;21.40;99.90
17252;DHT22;8742;51.716;8.790;2023-05-10T10:28:51;21.50;99.90
17252;DHT22;8742;51.716;8.790;2023-05-10T10:31:26;21.70;99.90
17252;DHT22;8742;51.716;8.790;2023-05-10T10:34:00;22.00;99.90
17252;DHT22;8742;51.716;8.790;2023-05-10T10:36:29;22.30;99.90
17252;DHT22;8742;51.716;8.790;2023-05-10T10:38:59;22.40;99.90
17252;DHT22;8742;51.716;8.790;2023-05-10T10:41:31;22.40;99.90
17252;DHT22;8742;51.716;8.790;2023-05-10T10:44:34;22.60;99.90
17252;DHT22;8742;51.716;8.790;2023-05-10T10:49:49;22.10;99.90
17252;DHT22;8742;51.716;8.790;2023-05-10T10:52:24;21.50;99.90
17252;DHT22;8742;51.716;8.790;2023-05-10T10:54:58;21.00;99.90
17252;DHT22;8742;51.716;8.790;2023-05-10T10:57:26;20.70;99.90
17252;DHT22;8742;51.716;8.790;2023-05-10T11:00:26;20.40;99.90
17252;DHT22;8742;51.716;8.790;2023-05-10T11:02:56;20.30;99.90
17252;DHT22;8742;51.716;8.790;2023-05-10T11:05:42;20.20;99.90
17252;DHT22;8742;51.716;8.790;2023-05-10T11:08:13;20.30;99.90
17252;DHT22;8742;51.716;8.790;2023-05-10T11:10:48;21.00;99.90
17252;DHT22;8742;51.716;8.790;2023-05-10T11:13:27;22.10;99.90
17252;DHT22;8742;51.716;8.790;2023-05-10T11:15:54;23.20;99.90
17252;DHT22;8742;51.716;8.790;2023-05-10T11:18:24;23.90;99.90
17252;DHT22;8742;51.716;8.790;2023-05-10T11:20:52;23.70;99.90
17252;DHT22;8742;51.716;8.790;2023-05-10T11:23:23;23.40;99.90
17252;DHT22;8742;51.716;8.790;2023-05-10T11:25:50;23.50;99.90
17252;DHT22;8742;51.716;8.790;2023-05-10T11:28:17;24.20;99.90
17252;DHT22;8742;51.716;8.790;2023-05-10T11:30:45;25.00;99.90
17252;DHT22;8742;51.716;8.790;2023-05-10T11:33:16;25.80;99.90
17252;DHT22;8742;51.716;8.790;2023-05-10T11:35:43;26.10;99.90
17252;DHT22;8742;51.716;8.790;2023-05-10T11:38:11;25.70;99.90
17252;DHT22;8742;51.716;8.790;2023-05-10T11:40:40;25.00;99.90
17252;DHT22;8742;51.716;8.790;2023-05-10T11:43:09;24.20;99.90
17252;DHT22;8742;51.716;8.790;2023-05-10T11:45:37;23.40;99.90
17252;DHT22;8742;51.716;8.790;2023-05-10T11:48:04;22.60;99.90
17252;DHT22;8742;51.716;8.790;2023-05-10T11:50:31;21.80;99.90
17252;DHT22;8742;51.716;8.790;2023-05-10T11:52:58;21.30;99.90
17252;DHT22;8742;51.716;8.790;2023-05-10T11:55:25;20.90;99.90
17252;DHT22;8742;51.716;8.790;2023-05-10T11:57:54;20.80;99.90
17252;DHT22;8742;51.716;8.790;2023-05-10T12:00:21;21.30;99.90
17252;DHT22;8742;51.716;8.790;2023-05-10T12:02:48;21.80;99.90
17252;DHT22;8742;51.716;8.790;2023-05-10T12:05:15;22.20;99.90
17252;DHT22;8742;51.716;8.790;2023-05-10T12:07:42;22.50;99.90
17252;DHT22;8742;51.716;8.790;2023-05-10T12:10:10;23.10;99.90
17252;DHT22;8742;51.716;8.790;2023-05-10T12:12:41;23.80;99.90
17252;DHT22;8742;51.716;8.790;2023-05-10T12:15:17;24.60;99.90
17252;DHT22;8742;51.716;8.790;2023-05-10T12:17:45;25.20;99.90
17252;DHT22;8742;51.716;8.790;2023-05-10T12:20:19;25.00;99.90
17252;DHT22;8742;51.716;8.790;2023-05-10T12:22:56;24.20;99.90
17252;DHT22;8742;51.716;8.790;2023-05-10T12:25:29;23.20;99.90
17252;DHT22;8742;51.716;8.790;2023-05-10T12:27:57;22.20;99.90
17252;DHT22;8742;51.716;8.790;2023-05-10T12:30:28;21.40;99.90
17252;DHT22;8742;51.716;8.790;2023-05-10T12:33:00;20.60;99.90
17252;DHT22;8742;51.716;8.790;2023-05-10T12:35:30;20.10;99.90
17252;DHT22;8742;51.716;8.790;2023-05-10T12:37:57;19.70;99.90
17252;DHT22;8742;51.716;8.790;2023-05-10T12:40:24;19.50;99.90
17252;DHT22;8742;51.716;8.790;2023-05-10T12:42:51;19.40;99.90
17252;DHT22;8742;51.716;8.790;2023-05-10T12:45:18;19.40;99.90
17252;DHT22;8742;51.716;8.790;2023-05-10T12:47:46;19.40;99.90
17252;DHT22;8742;51.716;8.790;2023-05-10T12:50:13;19.40;99.90
17252;DHT22;8742;51.716;8.790;2023-05-10T12:52:40;19.40;99.90
17252;DHT22;8742;51.716;8.790;2023-05-10T12:55:07;19.40;99.90
17252;DHT22;8742;51.716;8.790;2023-05-10T12:57:34;19.50;99.90
17252;DHT22;8742;51.716;8.790;2023-05-10T13:00:01;19.70;99.90
17252;DHT22;8742;51.716;8.790;2023-05-10T13:02:30;19.90;99.90
17252;DHT22;8742;51.716;8.790;2023-05-10T13:04:58;20.10;99.90
17252;DHT22;8742;51.716;8.790;2023-05-10T13:07:25;20.40;99.90
17252;DHT22;8742;51.716;8.790;2023-05-10T13:09:52;20.60;99.90
17252;DHT22;8742;51.716;8.790;2023-05-10T13:12:19;20.80;99.90
17252;DHT22;8742;51.716;8.790;2023-05-10T13:14:46;21.10;99.90
17252;DHT22;8742;51.716;8.790;2023-05-10T13:17:12;21.40;99.90
17252;DHT22;8742;51.716;8.790;2023-05-10T13:19:39;21.60;99.90
17252;DHT22;8742;51.716;8.790;2023-05-10T13:22:07;21.70;99.90
17252;DHT22;8742;51.716;8.790;2023-05-10T13:24:34;21.80;99.90
17252;DHT22;8742;51.716;8.790;2023-05-10T13:27:01;21.90;99.90
17252;DHT22;8742;51.716;8.790;2023-05-10T13:29:28;21.90;99.90
17252;DHT22;8742;51.716;8.790;2023-05-10T13:31:55;21.90;99.90
17252;DHT22;8742;51.716;8.790;2023-05-10T13:34:21;21.90;99.90
17252;DHT22;8742;51.716;8.790;2023-05-10T13:36:49;21.90;99.90
17252;DHT22;8742;51.716;8.790;2023-05-10T13:39:17;21.90;99.90
17252;DHT22;8742;51.716;8.790;2023-05-10T13:41:44;22.00;99.90
17252;DHT22;8742;51.716;8.790;2023-05-10T13:44:12;22.30;99.90
17252;DHT22;8742;51.716;8.790;2023-05-10T13:46:39;22.80;99.90
17252;DHT22;8742;51.716;8.790;2023-05-10T13:49:06;23.10;99.90
17252;DHT22;8742;51.716;8.790;2023-05-10T13:51:33;23.20;99.90
17252;DHT22;8742;51.716;8.790;2023-05-10T13:54:01;23.30;99.90
17252;DHT22;8742;51.716;8.790;2023-05-10T13:56:29;23.50;99.90
17252;DHT22;8742;51.716;8.790;2023-05-10T13:58:56;23.30;99.90
17252;DHT22;8742;51.716;8.790;2023-05-10T14:01:23;23.10;99.90
17252;DHT22;8742;51.716;8.790;2023-05-10T14:03:50;22.80;99.90
17252;DHT22;8742;51.716;8.790;2023-05-10T14:06:17;22.40;99.90
17252;DHT22;8742;51.716;8.790;2023-05-10T14:08:44;22.10;99.90
17252;DHT22;8742;51.716;8.790;2023-05-10T14:11:11;21.80;99.90
17252;DHT22;8742;51.716;8.790;2023-05-10T14:13:39;21.60;99.90
17252;DHT22;8742;51.716;8.790;2023-05-10T14:16:06;21.30;99.90
17252;DHT22;8742;51.716;8.790;2023-05-10T14:18:33;20.90;99.90
17252;DHT22;8742;51.716;8.790;2023-05-10T14:21:01;20.50;99.90
17252;DHT22;8742;51.716;8.790;2023-05-10T14:23:28;19.90;99.90
17252;DHT22;8742;51.716;8.790;2023-05-10T14:25:55;19.30;99.90
17252;DHT22;8742;51.716;8.790;2023-05-10T14:28:22;18.80;99.90
17252;DHT22;8742;51.716;8.790;2023-05-10T14:30:51;18.30;99.90
17252;DHT22;8742;51.716;8.790;2023-05-10T14:33:18;17.90;99.90
17252;DHT22;8742;51.716;8.790;2023-05-10T14:35:46;17.40;99.90
17252;DHT22;8742;51.716;8.790;2023-05-10T14:38:13;17.00;99.90
17252;DHT22;8742;51.716;8.790;2023-05-10T14:40:40;16.70;99.90
17252;DHT22;8742;51.716;8.790;2023-05-10T14:43:07;16.40;99.90
17252;DHT22;8742;51.716;8.790;2023-05-10T14:45:33;16.20;99.90
17252;DHT22;8742;51.716;8.790;2023-05-10T14:48:02;16.10;99.90
17252;DHT22;8742;51.716;8.790;2023-05-10T14:50:30;15.90;99.90
17252;DHT22;8742;51.716;8.790;2023-05-10T14:52:57;15.70;99.90
17252;DHT22;8742;51.716;8.790;2023-05-10T14:55:24;15.70;99.90
17252;DHT22;8742;51.716;8.790;2023-05-10T14:57:51;15.60;99.90
17252;DHT22;8742;51.716;8.790;2023-05-10T15:00:18;15.60;99.90
17252;DHT22;8742;51.716;8.790;2023-05-10T15:02:45;15.60;99.90
17252;DHT22;8742;51.716;8.790;2023-05-10T15:05:14;15.60;99.90
17252;DHT22;8742;51.716;8.790;2023-05-10T15:07:41;15.60;99.90
17252;DHT22;8742;51.716;8.790;2023-05-10T15:10:09;15.60;99.90
17252;DHT22;8742;51.716;8.790;2023-05-10T15:12:36;15.70;99.90
17252;DHT22;8742;51.716;8.790;2023-05-10T15:15:04;15.80;99.90
17252;DHT22;8742;51.716;8.790;2023-05-10T15:17:31;15.80;99.90
17252;DHT22;8742;51.716;8.790;2023-05-10T15:19:58;15.90;99.90
17252;DHT22;8742;51.716;8.790;2023-05-10T15:22:26;15.90;99.90
17252;DHT22;8742;51.716;8.790;2023-05-10T15:24:53;16.00;99.90
17252;DHT22;8742;51.716;8.790;2023-05-10T15:27:20;16.20;99.90
17252;DHT22;8742;51.716;8.790;2023-05-10T15:29:47;16.30;99.90
17252;DHT22;8742;51.716;8.790;2023-05-10T15:32:14;16.30;99.90
17252;DHT22;8742;51.716;8.790;2023-05-10T15:34:41;16.40;99.90
17252;DHT22;8742;51.716;8.790;2023-05-10T15:37:08;16.50;99.90
17252;DHT22;8742;51.716;8.790;2023-05-10T15:39:36;16.50;99.90
17252;DHT22;8742;51.716;8.790;2023-05-10T15:42:04;16.50;99.90
17252;DHT22;8742;51.716;8.790;2023-05-10T15:44:30;16.50;99.90
17252;DHT22;8742;51.716;8.790;2023-05-10T15:46:59;16.40;99.90
17252;DHT22;8742;51.716;8.790;2023-05-10T15:49:25;16.40;99.90
17252;DHT22;8742;51.716;8.790;2023-05-10T15:51:52;16.30;99.90
17252;DHT22;8742;51.716;8.790;2023-05-10T15:54:19;16.30;99.90
17252;DHT22;8742;51.716;8.790;2023-05-10T15:56:47;16.20;99.90